Time;durP1;ratioP1;P1;durP2;ratioP2;P2;SDS_P1;SDS_P2;PMS_P1;PMS_P2;Temp;Humidity;BMP_temperature;BMP_pressure;BME280_temperature;BME280_humidity;BME280_pressure;Samples;Min_cycle;Max_cycle;Signal;HPM_P1;HPM_P2
2021/12/14 05:44:41;;;;;;;60.83;26.87;;;;;;;1.53;100.00;100670.66;1716552;82;21618;-35
2021/12/14 05:47:13;;;;;;;57.38;25.80;;;;;;;1.56;100.00;100672.05;1706423;82;21091;-42
2021/12/14 05:49:43;;;;;;;49.13;24.30;;;;;;;1.60;100.00;100673.95;1698466;83;20998;-43
2021/12/14 05:52:17;;;;;;;58.70;25.17;;;;;;;1.65;100.00;100674.16;1715734;83;21576;-42
2021/12/14 05:54:45;;;;;;;56.30;25.57;;;;;;;1.67;100.00;100672.09;1692930;83;21059;-35
2021/12/14 05:57:17;;;;;;;49.90;23.22;;;;;;;1.68;100.00;100679.05;1692929;82;21065;-42
2021/12/14 05:59:43;;;;;;;44.13;21.62;;;;;;;1.68;100.00;100675.55;1654219;85;21016;-34
2021/12/14 06:02:10;;;;;;;48.70;24.65;;;;;;;1.68;100.00;100682.00;1666933;83;21081;-35
2021/12/14 06:04:47;;;;;;;54.95;23.25;;;;;;;1.66;100.00;100681.06;1667481;84;21012;-42
2021/12/14 06:07:14;;;;;;;46.28;22.85;;;;;;;1.65;100.00;100682.77;1666768;83;21040;-35
2021/12/14 06:09:45;;;;;;;52.50;26.10;;;;;;;1.64;100.00;100682.30;1658310;84;20993;-35
2021/12/14 06:12:27;;;;;;;49.83;25.82;;;;;;;1.64;100.00;100682.71;1668064;83;21529;-35
2021/12/14 06:15:49;;;;;;;55.70;27.75;;;;;;;1.63;100.00;100683.54;1701724;81;21674;-34
2021/12/14 06:23:51;;;;;;;63.38;27.67;;;;;;;1.66;100.00;100700.41;1698479;81;21023;-35
2021/12/14 06:44:05;;;;;;;59.67;28.35;;;;;;;1.66;100.00;100699.13;1729875;80;21068;-36
2021/12/14 06:47:52;;;;;;;74.67;31.70;;;;;;;1.64;100.00;100691.33;1724079;80;21493;-43
2021/12/14 06:52:10;;;;;;;69.70;31.62;;;;;;;1.64;100.00;100682.71;1715840;80;21186;-36
2021/12/14 06:54:57;;;;;;;64.80;29.57;;;;;;;1.63;100.00;100683.12;1720678;81;21060;-36
2021/12/14 06:59:01;;;;;;;83.60;30.45;;;;;;;1.64;100.00;100682.71;1714779;82;21071;-35
2021/12/14 07:06:09;;;;;;;60.35;26.05;;;;;;;1.56;100.00;100682.38;1707169;80;21038;-43
2021/12/14 07:13:04;;;;;;;54.30;23.75;;;;;;;1.42;100.00;100693.40;1712753;81;21671;-44
2021/12/14 07:16:47;;;;;;;63.08;28.05;;;;;;;1.37;100.00;100695.31;1690402;81;21200;-35
2021/12/14 07:20:41;;;;;;;55.30;27.10;;;;;;;1.36;100.00;100700.88;1677614;82;21048;-35
2021/12/14 07:24:46;;;;;;;57.30;26.05;;;;;;;1.36;100.00;100700.88;1688308;82;20973;-42
2021/12/14 07:44:55;;;;;;;62.40;28.75;;;;;;;1.48;100.00;100717.28;1697019;81;21088;-36
2021/12/14 07:52:37;;;;;;;56.15;27.07;;;;;;;1.49;100.00;100718.63;1662978;84;21218;-43
2021/12/14 07:55:48;;;;;;;55.35;26.30;;;;;;;1.47;100.00;100724.55;1668545;83;21133;-36
2021/12/14 08:06:56;;;;;;;53.25;24.82;;;;;;;1.33;100.00;100714.91;1694599;83;21080;-36
2021/12/14 08:10:29;;;;;;;59.55;25.85;;;;;;;1.29;100.00;100703.59;1696446;82;21076;-42
2021/12/14 08:14:14;;;;;;;60.78;25.32;;;;;;;1.26;100.00;100710.30;1671914;84;21055;-35
2021/12/14 08:18:13;;;;;;;60.75;28.07;;;;;;;1.24;100.00;100714.11;1671369;83;21428;-37
2021/12/14 08:22:10;;;;;;;54.95;22.82;;;;;;;1.24;100.00;100720.97;1694509;82;21697;-44
2021/12/14 08:38:06;;;;;;;60.10;25.50;;;;;;;1.29;100.00;100711.74;1721713;80;22142;-37
2021/12/14 08:41:47;;;;;;;58.92;26.07;;;;;;;1.27;100.00;100724.54;1673780;83;21663;-37
2021/12/14 08:49:16;;;;;;;55.88;23.98;;;;;;;1.30;100.00;100723.41;1684708;83;21016;-43
2021/12/14 08:52:07;;;;;;;60.23;26.35;;;;;;;1.35;100.00;100726.59;1699195;82;21109;-36
2021/12/14 08:55:15;;;;;;;48.45;24.32;;;;;;;1.40;100.00;100735.01;1681999;83;21060;-44
2021/12/14 08:58:06;;;;;;;50.63;25.17;;;;;;;1.40;100.00;100725.98;1688542;81;21660;-36
2021/12/14 09:00:42;;;;;;;57.13;23.52;;;;;;;1.39;100.00;100722.02;1699837;83;21096;-36
2021/12/14 09:03:13;;;;;;;51.53;23.20;;;;;;;1.39;100.00;100720.33;1683686;83;21606;-39
2021/12/14 09:06:02;;;;;;;50.92;23.00;;;;;;;1.39;100.00;100720.33;1682319;83;21060;-36
2021/12/14 09:16:57;;;;;;;55.88;25.57;;;;;;;1.38;100.00;100711.24;1687127;83;21053;-36
2021/12/14 09:20:37;;;;;;;61.10;25.65;;;;;;;1.37;100.00;100705.63;1695430;83;21007;-36
2021/12/14 09:31:38;;;;;;;61.15;26.20;;;;;;;1.33;100.00;100698.14;1699405;83;21089;-36
2021/12/14 09:34:55;;;;;;;58.85;27.58;;;;;;;1.34;100.00;100693.49;1705910;81;21048;-37
2021/12/14 09:41:29;;;;;;;63.35;27.48;;;;;;;1.36;100.00;100681.95;1676351;83;21069;-44
2021/12/14 09:44:24;;;;;;;54.38;25.35;;;;;;;1.36;100.00;100687.98;1663153;84;21659;-45
2021/12/14 09:47:46;;;;;;;70.20;30.20;;;;;;;1.36;100.00;100687.98;1670024;83;21126;-42
2021/12/14 09:51:07;;;;;;;64.65;31.27;;;;;;;1.38;100.00;100686.34;1669837;84;21703;-43
2021/12/14 09:57:09;;;;;;;69.87;31.25;;;;;;;1.36;100.00;100687.98;1705724;81;21481;-44
2021/12/14 09:59:48;;;;;;;104.97;42.40;;;;;;;1.35;100.00;100687.92;1704520;82;21588;-36
2021/12/14 10:43:37;;;;;;;45.08;22.70;;;;;;;1.53;100.00;100665.08;1723851;81;20956;-35
2021/12/14 10:47:04;;;;;;;47.67;24.45;;;;;;;1.52;100.00;100665.91;1697391;80;21113;-43
2021/12/14 11:02:40;;;;;;;43.83;22.48;;;;;;;1.53;100.00;100659.05;1705262;81;21649;-44
2021/12/14 11:06:34;;;;;;;48.08;22.77;;;;;;;1.53;100.00;100671.53;1709801;80;21043;-37
2021/12/14 11:18:45;;;;;;;46.37;24.23;;;;;;;1.47;100.00;100654.52;1710711;81;21509;-37
2021/12/14 11:22:21;;;;;;;55.45;25.37;;;;;;;1.49;100.00;100657.14;1704127;81;21515;-44
2021/12/14 11:26:06;;;;;;;43.83;21.87;;;;;;;1.52;100.00;100656.00;1649291;84;21758;-37
2021/12/14 11:29:06;;;;;;;44.48;24.47;;;;;;;1.57;100.00;100654.50;1647076;84;21588;-37
2021/12/14 11:32:12;;;;;;;50.60;24.10;;;;;;;1.51;100.00;100661.57;1646306;85;21069;-44
2021/12/14 11:38:53;;;;;;;49.70;21.40;;;;;;;1.49;100.00;100662.30;1643089;85;21011;-37
2021/12/14 11:42:36;;;;;;;47.00;21.85;;;;;;;1.47;100.00;100658.38;1646990;84;21162;-44
2021/12/14 11:45:35;;;;;;;46.23;22.35;;;;;;;1.45;100.00;100665.56;1650725;84;21036;-45
2021/12/14 11:48:30;;;;;;;48.17;22.00;;;;;;;1.43;100.00;100650.45;1654514;84;21045;-44
2021/12/14 11:51:43;;;;;;;47.13;22.35;;;;;;;1.45;100.00;100641.06;1646356;85;21100;-46
2021/12/14 11:55:29;;;;;;;46.50;21.05;;;;;;;1.45;100.00;100644.55;1647573;84;21009;-46
2021/12/14 12:10:56;;;;;;;46.58;18.62;;;;;;;1.60;100.00;100640.42;1713339;81;21068;-37
2021/12/14 12:14:24;;;;;;;36.48;18.32;;;;;;;1.57;100.00;100635.16;1709262;80;21010;-45
2021/12/14 12:25:16;;;;;;;42.38;21.42;;;;;;;1.38;100.00;100648.08;1672873;83;21699;-37
2021/12/14 12:27:53;;;;;;;43.38;21.23;;;;;;;1.40;100.00;100647.75;1653156;84;21126;-38
2021/12/14 12:31:12;;;;;;;55.98;28.55;;;;;;;1.43;100.00;100644.00;1677025;84;21793;-43
2021/12/14 12:34:47;;;;;;;44.88;23.22;;;;;;;1.47;100.00;100649.36;1674369;84;20998;-43
2021/12/14 12:41:56;;;;;;;42.40;20.45;;;;;;;1.52;99.57;100667.61;1675140;83;21658;-36
2021/12/14 12:58:25;;;;;;;37.30;19.32;;;;;;;1.72;98.61;100690.35;1713745;81;21610;-45
2021/12/14 13:02:41;;;;;;;40.60;20.82;;;;;;;1.71;97.71;100694.63;1710850;80;21026;-43
2021/12/14 13:13:48;;;;;;;46.10;22.35;;;;;;;1.66;98.31;100717.19;1719060;81;21404;-37
2021/12/14 13:16:43;;;;;;;45.65;22.05;;;;;;;1.67;98.23;100720.23;1714101;81;21520;-44
2021/12/14 13:19:34;;;;;;;49.75;24.63;;;;;;;1.67;98.46;100716.36;1713024;81;21009;-44
2021/12/14 13:22:47;;;;;;;51.18;24.18;;;;;;;1.70;98.63;100708.35;1706289;80;21571;-44
2021/12/14 13:25:38;;;;;;;52.23;26.77;;;;;;;1.74;98.60;100716.70;1728642;81;21077;-43
2021/12/14 13:28:13;;;;;;;42.20;19.40;;;;;;;1.79;98.66;100711.71;1709013;81;20942;-44
2021/12/14 13:30:40;;;;;;;41.58;18.48;;;;;;;1.86;98.43;100717.63;1717676;81;21042;-43
2021/12/14 13:33:25;;;;;;;34.60;17.75;;;;;;;1.93;98.15;100711.89;1721624;81;21010;-44
2021/12/14 13:35:58;;;;;;;37.60;16.35;;;;;;;1.98;97.89;100704.34;1729573;81;21128;-37
2021/12/14 13:38:36;;;;;;;32.20;16.77;;;;;;;2.05;97.62;100706.34;1728921;81;20998;-36
2021/12/14 13:42:03;;;;;;;31.27;15.88;;;;;;;2.11;97.25;100704.89;1694117;82;21088;-37
2021/12/14 13:44:40;;;;;;;34.40;17.52;;;;;;;2.13;96.11;100701.08;1699456;83;21428;-37
2021/12/14 13:47:09;;;;;;;34.18;16.12;;;;;;;2.07;95.81;100692.67;1693991;83;21032;-37
2021/12/14 13:49:37;;;;;;;27.70;16.60;;;;;;;2.03;95.64;100684.36;1699859;83;21113;-37
2021/12/14 13:52:05;;;;;;;33.30;17.20;;;;;;;2.01;95.46;100679.94;1694962;83;21066;-43
2021/12/14 13:54:54;;;;;;;33.02;15.90;;;;;;;1.95;95.41;100670.24;1693176;83;21668;-43
2021/12/14 13:57:21;;;;;;;29.87;16.85;;;;;;;1.92;95.34;100662.80;1671831;83;21515;-43
2021/12/14 13:59:48;;;;;;;29.27;16.57;;;;;;;1.84;95.21;100668.92;1707664;82;21027;-43
2021/12/14 14:02:14;;;;;;;27.58;15.78;;;;;;;1.75;95.55;100670.73;1725039;82;21011;-37
2021/12/14 14:04:41;;;;;;;34.63;17.23;;;;;;;1.71;96.00;100670.13;1705587;82;20986;-43
2021/12/14 14:07:08;;;;;;;31.27;15.58;;;;;;;1.67;96.34;100664.36;1737371;81;21528;-47
2021/12/14 14:09:40;;;;;;;33.13;15.83;;;;;;;1.66;96.74;100666.47;1722968;81;21013;-37
2021/12/14 14:12:09;;;;;;;30.90;15.45;;;;;;;1.62;96.88;100672.72;1731928;81;21120;-37
2021/12/14 14:14:38;;;;;;;32.08;14.85;;;;;;;1.60;97.31;100680.41;1729692;81;21633;-37
2021/12/14 14:17:09;;;;;;;32.30;17.65;;;;;;;1.58;97.50;100676.48;1726509;81;21032;-37
2021/12/14 14:19:40;;;;;;;29.63;17.17;;;;;;;1.55;97.45;100681.49;1696670;83;21018;-43
